Terminal Aerodrome Forecast
Issued by NWS

Home | Current Version | Previous Version | Text Only | Print | Product List | Glossary On
Versions: 1 2 3 4 5 6 7 8 9 10 11 12 13 14 15 16 17 18 19 20
000
FTUS46 KSEW 211100
TAFOLM
TAF
KOLM 211120Z 2112/2212 19010KT P6SM -SHRA BKN025 OVC045
      TEMPO 2112/2115 5SM -SHRA BR OVC015
     FM211800 18010KT P6SM -SHRA OVC030
     FM212200 19012KT P6SM -RA OVC035
     FM220400 20013KT 5SM RA BR OVC030=

USA.gov is the U.S. government's official web portal to all federal, state and local government web resources and services.